sensor_id;sensor_type;location;lat;lon;timestamp;P1;durP1;ratioP1;P2;durP2;ratioP2
6290;SDS011;3178;48.730;8.990;2023-02-23T00:01:09;24.70;;;17.10;;
6290;SDS011;3178;48.730;8.990;2023-02-23T00:03:35;26.33;;;17.03;;
6290;SDS011;3178;48.730;8.990;2023-02-23T00:06:02;24.33;;;16.00;;
6290;SDS011;3178;48.730;8.990;2023-02-23T00:08:28;26.67;;;16.53;;
6290;SDS011;3178;48.730;8.990;2023-02-23T00:10:53;26.20;;;17.50;;
6290;SDS011;3178;48.730;8.990;2023-02-23T00:13:22;27.43;;;17.50;;
6290;SDS011;3178;48.730;8.990;2023-02-23T00:15:48;31.93;;;19.13;;
6290;SDS011;3178;48.730;8.990;2023-02-23T00:18:13;29.73;;;18.20;;
6290;SDS011;3178;48.730;8.990;2023-02-23T00:20:41;30.50;;;17.87;;
6290;SDS011;3178;48.730;8.990;2023-02-23T00:23:11;28.17;;;19.13;;
6290;SDS011;3178;48.730;8.990;2023-02-23T00:25:38;30.20;;;20.10;;
6290;SDS011;3178;48.730;8.990;2023-02-23T00:28:06;36.57;;;18.50;;
6290;SDS011;3178;48.730;8.990;2023-02-23T00:30:31;24.87;;;17.97;;
6290;SDS011;3178;48.730;8.990;2023-02-23T00:32:59;30.77;;;20.40;;
6290;SDS011;3178;48.730;8.990;2023-02-23T00:35:25;34.20;;;20.27;;
6290;SDS011;3178;48.730;8.990;2023-02-23T00:37:50;27.57;;;18.97;;
6290;SDS011;3178;48.730;8.990;2023-02-23T00:40:16;35.90;;;20.97;;
6290;SDS011;3178;48.730;8.990;2023-02-23T00:42:44;36.27;;;21.67;;
6290;SDS011;3178;48.730;8.990;2023-02-23T00:45:11;33.63;;;21.20;;
6290;SDS011;3178;48.730;8.990;2023-02-23T00:47:38;36.43;;;21.57;;
6290;SDS011;3178;48.730;8.990;2023-02-23T00:50:06;37.63;;;21.90;;
6290;SDS011;3178;48.730;8.990;2023-02-23T00:52:35;32.43;;;21.30;;
6290;SDS011;3178;48.730;8.990;2023-02-23T00:55:01;34.53;;;23.00;;
6290;SDS011;3178;48.730;8.990;2023-02-23T00:57:26;34.83;;;20.87;;
6290;SDS011;3178;48.730;8.990;2023-02-23T00:59:52;34.97;;;21.97;;
6290;SDS011;3178;48.730;8.990;2023-02-23T01:02:17;33.10;;;19.73;;
6290;SDS011;3178;48.730;8.990;2023-02-23T01:04:43;41.93;;;23.93;;
6290;SDS011;3178;48.730;8.990;2023-02-23T01:07:08;29.80;;;21.67;;
6290;SDS011;3178;48.730;8.990;2023-02-23T01:09:36;32.57;;;21.90;;
6290;SDS011;3178;48.730;8.990;2023-02-23T01:12:02;33.70;;;22.27;;
6290;SDS011;3178;48.730;8.990;2023-02-23T01:14:31;35.13;;;20.47;;
6290;SDS011;3178;48.730;8.990;2023-02-23T01:16:57;30.53;;;21.80;;
6290;SDS011;3178;48.730;8.990;2023-02-23T01:19:22;36.60;;;21.97;;
6290;SDS011;3178;48.730;8.990;2023-02-23T01:21:48;33.60;;;22.07;;
6290;SDS011;3178;48.730;8.990;2023-02-23T01:24:14;35.50;;;20.50;;
6290;SDS011;3178;48.730;8.990;2023-02-23T01:26:40;34.60;;;21.83;;
6290;SDS011;3178;48.730;8.990;2023-02-23T01:29:11;34.40;;;22.27;;
6290;SDS011;3178;48.730;8.990;2023-02-23T01:31:40;36.43;;;23.40;;
6290;SDS011;3178;48.730;8.990;2023-02-23T01:34:08;34.03;;;22.43;;
6290;SDS011;3178;48.730;8.990;2023-02-23T01:36:36;29.73;;;19.97;;
6290;SDS011;3178;48.730;8.990;2023-02-23T01:39:04;30.57;;;20.90;;
6290;SDS011;3178;48.730;8.990;2023-02-23T01:41:31;40.17;;;19.87;;
6290;SDS011;3178;48.730;8.990;2023-02-23T01:46:23;37.17;;;21.87;;
6290;SDS011;3178;48.730;8.990;2023-02-23T01:48:49;32.57;;;18.60;;
6290;SDS011;3178;48.730;8.990;2023-02-23T01:51:17;27.17;;;16.13;;
6290;SDS011;3178;48.730;8.990;2023-02-23T01:53:50;29.37;;;19.37;;
6290;SDS011;3178;48.730;8.990;2023-02-23T01:56:21;29.10;;;17.83;;
6290;SDS011;3178;48.730;8.990;2023-02-23T01:58:54;38.53;;;21.13;;
6290;SDS011;3178;48.730;8.990;2023-02-23T02:01:21;25.73;;;18.53;;
6290;SDS011;3178;48.730;8.990;2023-02-23T02:03:48;27.40;;;18.97;;
6290;SDS011;3178;48.730;8.990;2023-02-23T02:06:20;28.80;;;18.37;;
6290;SDS011;3178;48.730;8.990;2023-02-23T02:08:50;36.33;;;21.80;;
6290;SDS011;3178;48.730;8.990;2023-02-23T02:11:20;36.27;;;20.23;;
6290;SDS011;3178;48.730;8.990;2023-02-23T02:14:16;36.60;;;19.90;;
6290;SDS011;3178;48.730;8.990;2023-02-23T02:19:38;28.97;;;19.33;;
6290;SDS011;3178;48.730;8.990;2023-02-23T02:22:35;27.43;;;17.70;;
6290;SDS011;3178;48.730;8.990;2023-02-23T02:28:36;26.80;;;17.97;;
6290;SDS011;3178;48.730;8.990;2023-02-23T02:43:37;23.93;;;15.17;;
6290;SDS011;3178;48.730;8.990;2023-02-23T02:46:20;28.20;;;17.20;;
6290;SDS011;3178;48.730;8.990;2023-02-23T02:57:02;25.37;;;15.83;;
6290;SDS011;3178;48.730;8.990;2023-02-23T02:59:29;24.40;;;14.30;;
6290;SDS011;3178;48.730;8.990;2023-02-23T03:02:15;24.47;;;15.00;;
6290;SDS011;3178;48.730;8.990;2023-02-23T03:05:01;30.10;;;16.70;;
6290;SDS011;3178;48.730;8.990;2023-02-23T03:07:53;24.40;;;14.33;;
6290;SDS011;3178;48.730;8.990;2023-02-23T03:16:36;21.27;;;14.93;;
6290;SDS011;3178;48.730;8.990;2023-02-23T03:19:35;38.53;;;15.10;;
6290;SDS011;3178;48.730;8.990;2023-02-23T03:22:38;25.80;;;15.13;;
6290;SDS011;3178;48.730;8.990;2023-02-23T03:26:03;22.90;;;13.77;;
6290;SDS011;3178;48.730;8.990;2023-02-23T03:28:48;21.30;;;13.10;;
6290;SDS011;3178;48.730;8.990;2023-02-23T03:35:13;25.60;;;13.87;;
6290;SDS011;3178;48.730;8.990;2023-02-23T03:38:08;30.93;;;13.43;;
6290;SDS011;3178;48.730;8.990;2023-02-23T03:40:59;23.00;;;13.23;;
6290;SDS011;3178;48.730;8.990;2023-02-23T03:43:54;22.97;;;14.40;;
6290;SDS011;3178;48.730;8.990;2023-02-23T03:46:42;21.60;;;13.97;;
6290;SDS011;3178;48.730;8.990;2023-02-23T03:49:29;20.77;;;14.17;;
6290;SDS011;3178;48.730;8.990;2023-02-23T03:52:25;22.90;;;14.50;;
6290;SDS011;3178;48.730;8.990;2023-02-23T03:55:22;20.77;;;13.93;;
6290;SDS011;3178;48.730;8.990;2023-02-23T03:58:12;25.53;;;15.50;;
6290;SDS011;3178;48.730;8.990;2023-02-23T04:01:01;27.70;;;14.63;;
6290;SDS011;3178;48.730;8.990;2023-02-23T04:03:46;25.90;;;16.10;;
6290;SDS011;3178;48.730;8.990;2023-02-23T04:06:33;21.90;;;14.53;;
6290;SDS011;3178;48.730;8.990;2023-02-23T04:09:21;22.70;;;15.47;;
6290;SDS011;3178;48.730;8.990;2023-02-23T04:12:08;24.73;;;15.90;;
6290;SDS011;3178;48.730;8.990;2023-02-23T04:15:03;29.40;;;16.60;;
6290;SDS011;3178;48.730;8.990;2023-02-23T04:17:35;25.07;;;15.00;;
6290;SDS011;3178;48.730;8.990;2023-02-23T04:20:00;24.57;;;15.50;;
6290;SDS011;3178;48.730;8.990;2023-02-23T04:22:26;32.13;;;16.43;;
6290;SDS011;3178;48.730;8.990;2023-02-23T04:24:51;26.50;;;15.70;;
6290;SDS011;3178;48.730;8.990;2023-02-23T04:27:17;30.30;;;14.80;;
6290;SDS011;3178;48.730;8.990;2023-02-23T04:29:43;20.27;;;14.80;;
6290;SDS011;3178;48.730;8.990;2023-02-23T04:32:12;30.20;;;14.43;;
6290;SDS011;3178;48.730;8.990;2023-02-23T04:34:39;24.03;;;16.27;;
6290;SDS011;3178;48.730;8.990;2023-02-23T04:37:05;22.10;;;16.03;;
6290;SDS011;3178;48.730;8.990;2023-02-23T04:39:31;27.37;;;15.20;;
6290;SDS011;3178;48.730;8.990;2023-02-23T04:41:56;27.03;;;15.30;;
6290;SDS011;3178;48.730;8.990;2023-02-23T04:44:22;27.30;;;15.60;;
6290;SDS011;3178;48.730;8.990;2023-02-23T04:46:47;23.23;;;15.00;;
6290;SDS011;3178;48.730;8.990;2023-02-23T04:49:13;24.10;;;15.60;;
6290;SDS011;3178;48.730;8.990;2023-02-23T04:51:38;20.97;;;14.30;;
6290;SDS011;3178;48.730;8.990;2023-02-23T04:54:04;21.93;;;13.80;;
6290;SDS011;3178;48.730;8.990;2023-02-23T04:56:30;24.53;;;15.50;;
6290;SDS011;3178;48.730;8.990;2023-02-23T04:58:56;25.77;;;14.77;;
6290;SDS011;3178;48.730;8.990;2023-02-23T05:01:21;21.77;;;14.90;;
6290;SDS011;3178;48.730;8.990;2023-02-23T05:03:48;25.30;;;16.33;;
6290;SDS011;3178;48.730;8.990;2023-02-23T05:06:17;25.50;;;15.00;;
6290;SDS011;3178;48.730;8.990;2023-02-23T05:08:43;24.67;;;15.30;;
6290;SDS011;3178;48.730;8.990;2023-02-23T05:11:09;27.30;;;15.93;;
6290;SDS011;3178;48.730;8.990;2023-02-23T05:13:35;23.00;;;15.00;;
6290;SDS011;3178;48.730;8.990;2023-02-23T05:16:00;27.23;;;14.83;;
6290;SDS011;3178;48.730;8.990;2023-02-23T05:18:26;28.10;;;14.60;;
6290;SDS011;3178;48.730;8.990;2023-02-23T05:20:52;22.87;;;14.30;;
6290;SDS011;3178;48.730;8.990;2023-02-23T05:23:24;24.90;;;15.53;;
6290;SDS011;3178;48.730;8.990;2023-02-23T05:25:50;20.70;;;12.70;;
6290;SDS011;3178;48.730;8.990;2023-02-23T05:28:16;22.40;;;13.80;;
6290;SDS011;3178;48.730;8.990;2023-02-23T05:30:41;26.93;;;14.33;;
6290;SDS011;3178;48.730;8.990;2023-02-23T05:33:07;27.40;;;14.17;;
6290;SDS011;3178;48.730;8.990;2023-02-23T05:35:32;21.90;;;13.97;;
6290;SDS011;3178;48.730;8.990;2023-02-23T05:37:58;17.60;;;12.93;;
6290;SDS011;3178;48.730;8.990;2023-02-23T05:40:24;23.27;;;13.93;;
6290;SDS011;3178;48.730;8.990;2023-02-23T05:42:49;23.10;;;14.17;;
6290;SDS011;3178;48.730;8.990;2023-02-23T05:45:15;21.13;;;13.47;;
6290;SDS011;3178;48.730;8.990;2023-02-23T05:47:40;26.23;;;14.67;;
6290;SDS011;3178;48.730;8.990;2023-02-23T05:50:07;19.43;;;12.93;;
6290;SDS011;3178;48.730;8.990;2023-02-23T05:52:39;18.00;;;12.20;;
6290;SDS011;3178;48.730;8.990;2023-02-23T05:55:06;20.80;;;13.47;;
6290;SDS011;3178;48.730;8.990;2023-02-23T05:57:35;21.47;;;12.90;;
6290;SDS011;3178;48.730;8.990;2023-02-23T06:00:01;21.83;;;13.60;;
6290;SDS011;3178;48.730;8.990;2023-02-23T06:02:28;22.57;;;12.80;;
6290;SDS011;3178;48.730;8.990;2023-02-23T06:04:53;18.50;;;13.47;;
6290;SDS011;3178;48.730;8.990;2023-02-23T06:07:19;18.03;;;12.13;;
6290;SDS011;3178;48.730;8.990;2023-02-23T06:09:45;20.50;;;13.37;;
6290;SDS011;3178;48.730;8.990;2023-02-23T06:12:10;20.47;;;13.67;;
6290;SDS011;3178;48.730;8.990;2023-02-23T06:14:36;21.20;;;13.63;;
6290;SDS011;3178;48.730;8.990;2023-02-23T06:17:01;25.57;;;14.43;;
6290;SDS011;3178;48.730;8.990;2023-02-23T06:19:27;16.97;;;12.30;;
6290;SDS011;3178;48.730;8.990;2023-02-23T06:21:53;20.13;;;13.57;;
6290;SDS011;3178;48.730;8.990;2023-02-23T06:24:18;18.33;;;13.67;;
6290;SDS011;3178;48.730;8.990;2023-02-23T06:26:44;19.87;;;13.47;;
6290;SDS011;3178;48.730;8.990;2023-02-23T06:29:10;21.80;;;12.53;;
6290;SDS011;3178;48.730;8.990;2023-02-23T06:31:36;23.30;;;14.17;;
6290;SDS011;3178;48.730;8.990;2023-02-23T06:34:02;19.27;;;12.70;;
6290;SDS011;3178;48.730;8.990;2023-02-23T06:36:28;25.50;;;12.53;;
6290;SDS011;3178;48.730;8.990;2023-02-23T06:38:55;19.30;;;13.23;;
6290;SDS011;3178;48.730;8.990;2023-02-23T06:41:22;20.50;;;13.47;;
6290;SDS011;3178;48.730;8.990;2023-02-23T06:43:47;20.13;;;13.47;;
6290;SDS011;3178;48.730;8.990;2023-02-23T06:46:13;19.47;;;12.50;;
6290;SDS011;3178;48.730;8.990;2023-02-23T06:48:38;25.90;;;14.23;;
6290;SDS011;3178;48.730;8.990;2023-02-23T06:51:05;22.47;;;12.80;;
6290;SDS011;3178;48.730;8.990;2023-02-23T06:53:31;27.60;;;13.60;;
6290;SDS011;3178;48.730;8.990;2023-02-23T06:55:57;23.13;;;15.63;;
6290;SDS011;3178;48.730;8.990;2023-02-23T06:58:23;23.40;;;14.10;;
6290;SDS011;3178;48.730;8.990;2023-02-23T07:00:49;21.07;;;12.37;;
6290;SDS011;3178;48.730;8.990;2023-02-23T07:03:14;22.23;;;13.30;;
6290;SDS011;3178;48.730;8.990;2023-02-23T07:05:40;30.00;;;14.80;;
6290;SDS011;3178;48.730;8.990;2023-02-23T07:08:05;24.57;;;14.00;;
6290;SDS011;3178;48.730;8.990;2023-02-23T07:10:31;23.90;;;13.97;;
6290;SDS011;3178;48.730;8.990;2023-02-23T07:12:58;30.40;;;14.97;;
6290;SDS011;3178;48.730;8.990;2023-02-23T07:15:24;21.00;;;13.67;;
6290;SDS011;3178;48.730;8.990;2023-02-23T07:17:50;24.87;;;13.70;;
6290;SDS011;3178;48.730;8.990;2023-02-23T07:20:16;24.73;;;14.87;;
6290;SDS011;3178;48.730;8.990;2023-02-23T07:22:43;33.17;;;15.03;;
6290;SDS011;3178;48.730;8.990;2023-02-23T07:25:09;33.43;;;14.67;;
6290;SDS011;3178;48.730;8.990;2023-02-23T07:27:35;26.33;;;13.23;;
6290;SDS011;3178;48.730;8.990;2023-02-23T07:30:01;30.83;;;14.47;;
6290;SDS011;3178;48.730;8.990;2023-02-23T07:32:27;25.87;;;13.37;;
6290;SDS011;3178;48.730;8.990;2023-02-23T07:34:52;22.93;;;15.17;;
6290;SDS011;3178;48.730;8.990;2023-02-23T07:37:18;23.50;;;15.43;;
6290;SDS011;3178;48.730;8.990;2023-02-23T07:39:43;26.67;;;13.97;;
6290;SDS011;3178;48.730;8.990;2023-02-23T07:42:09;28.80;;;14.60;;
6290;SDS011;3178;48.730;8.990;2023-02-23T07:44:35;17.70;;;12.40;;
6290;SDS011;3178;48.730;8.990;2023-02-23T07:47:02;27.73;;;13.63;;
6290;SDS011;3178;48.730;8.990;2023-02-23T07:49:27;30.10;;;13.20;;
6290;SDS011;3178;48.730;8.990;2023-02-23T07:51:54;21.77;;;12.80;;
6290;SDS011;3178;48.730;8.990;2023-02-23T07:54:20;25.97;;;13.60;;
6290;SDS011;3178;48.730;8.990;2023-02-23T07:56:46;22.80;;;12.47;;
6290;SDS011;3178;48.730;8.990;2023-02-23T07:59:12;26.23;;;12.87;;
6290;SDS011;3178;48.730;8.990;2023-02-23T08:01:38;23.20;;;13.30;;
6290;SDS011;3178;48.730;8.990;2023-02-23T08:04:04;26.67;;;12.23;;
6290;SDS011;3178;48.730;8.990;2023-02-23T08:06:30;18.60;;;11.47;;
6290;SDS011;3178;48.730;8.990;2023-02-23T08:08:57;19.37;;;12.37;;
6290;SDS011;3178;48.730;8.990;2023-02-23T08:11:24;20.67;;;11.80;;
6290;SDS011;3178;48.730;8.990;2023-02-23T08:13:52;21.23;;;11.30;;
6290;SDS011;3178;48.730;8.990;2023-02-23T08:16:20;22.20;;;10.93;;
6290;SDS011;3178;48.730;8.990;2023-02-23T08:18:46;19.93;;;11.30;;
6290;SDS011;3178;48.730;8.990;2023-02-23T08:21:11;22.33;;;12.17;;
6290;SDS011;3178;48.730;8.990;2023-02-23T08:23:37;17.00;;;10.80;;
6290;SDS011;3178;48.730;8.990;2023-02-23T08:26:02;21.17;;;11.77;;
6290;SDS011;3178;48.730;8.990;2023-02-23T08:28:29;34.77;;;11.57;;
6290;SDS011;3178;48.730;8.990;2023-02-23T08:30:55;18.90;;;11.27;;
6290;SDS011;3178;48.730;8.990;2023-02-23T08:33:21;14.73;;;10.20;;
6290;SDS011;3178;48.730;8.990;2023-02-23T08:35:46;29.40;;;12.13;;
6290;SDS011;3178;48.730;8.990;2023-02-23T08:38:12;21.23;;;10.13;;
6290;SDS011;3178;48.730;8.990;2023-02-23T08:40:38;24.67;;;11.60;;
6290;SDS011;3178;48.730;8.990;2023-02-23T08:43:03;20.03;;;12.63;;
6290;SDS011;3178;48.730;8.990;2023-02-23T08:45:29;15.47;;;11.30;;
6290;SDS011;3178;48.730;8.990;2023-02-23T08:47:55;24.97;;;12.50;;
6290;SDS011;3178;48.730;8.990;2023-02-23T08:50:20;20.00;;;12.03;;
6290;SDS011;3178;48.730;8.990;2023-02-23T08:52:46;15.43;;;11.13;;
6290;SDS011;3178;48.730;8.990;2023-02-23T08:55:12;21.63;;;11.27;;
6290;SDS011;3178;48.730;8.990;2023-02-23T08:57:37;15.20;;;10.67;;
6290;SDS011;3178;48.730;8.990;2023-02-23T09:00:03;21.20;;;10.57;;
6290;SDS011;3178;48.730;8.990;2023-02-23T09:02:37;15.80;;;9.90;;
6290;SDS011;3178;48.730;8.990;2023-02-23T09:05:07;19.77;;;11.13;;
6290;SDS011;3178;48.730;8.990;2023-02-23T09:07:34;27.40;;;10.70;;
6290;SDS011;3178;48.730;8.990;2023-02-23T09:10:00;15.90;;;9.73;;
6290;SDS011;3178;48.730;8.990;2023-02-23T09:12:26;14.90;;;9.10;;
6290;SDS011;3178;48.730;8.990;2023-02-23T09:14:52;18.73;;;9.30;;
6290;SDS011;3178;48.730;8.990;2023-02-23T09:17:18;16.40;;;9.37;;
6290;SDS011;3178;48.730;8.990;2023-02-23T09:19:44;15.90;;;8.90;;
6290;SDS011;3178;48.730;8.990;2023-02-23T09:22:10;15.20;;;7.53;;
6290;SDS011;3178;48.730;8.990;2023-02-23T09:24:35;15.70;;;9.20;;
6290;SDS011;3178;48.730;8.990;2023-02-23T09:27:02;16.03;;;9.33;;
6290;SDS011;3178;48.730;8.990;2023-02-23T09:29:28;13.03;;;8.90;;
6290;SDS011;3178;48.730;8.990;2023-02-23T09:31:54;21.57;;;9.00;;
6290;SDS011;3178;48.730;8.990;2023-02-23T09:34:21;17.90;;;8.30;;
6290;SDS011;3178;48.730;8.990;2023-02-23T09:36:46;13.27;;;8.27;;
6290;SDS011;3178;48.730;8.990;2023-02-23T09:39:12;15.90;;;8.43;;
6290;SDS011;3178;48.730;8.990;2023-02-23T09:41:43;14.50;;;8.83;;
6290;SDS011;3178;48.730;8.990;2023-02-23T09:44:20;14.03;;;6.87;;
6290;SDS011;3178;48.730;8.990;2023-02-23T09:46:54;16.43;;;8.30;;
6290;SDS011;3178;48.730;8.990;2023-02-23T09:49:28;12.00;;;7.97;;
6290;SDS011;3178;48.730;8.990;2023-02-23T09:51:57;19.37;;;9.23;;
6290;SDS011;3178;48.730;8.990;2023-02-23T09:54:25;17.60;;;8.00;;
6290;SDS011;3178;48.730;8.990;2023-02-23T09:56:56;12.73;;;7.60;;
6290;SDS011;3178;48.730;8.990;2023-02-23T09:59:23;13.27;;;6.80;;
6290;SDS011;3178;48.730;8.990;2023-02-23T10:04:35;11.47;;;5.37;;
6290;SDS011;3178;48.730;8.990;2023-02-23T10:15:48;7.10;;;4.10;;
6290;SDS011;3178;48.730;8.990;2023-02-23T10:18:39;9.17;;;4.30;;
6290;SDS011;3178;48.730;8.990;2023-02-23T10:21:22;8.80;;;4.80;;
6290;SDS011;3178;48.730;8.990;2023-02-23T10:24:02;8.13;;;4.40;;
6290;SDS011;3178;48.730;8.990;2023-02-23T10:26:51;9.13;;;4.47;;
6290;SDS011;3178;48.730;8.990;2023-02-23T10:32:07;7.20;;;4.10;;
6290;SDS011;3178;48.730;8.990;2023-02-23T10:34:38;7.10;;;3.90;;
6290;SDS011;3178;48.730;8.990;2023-02-23T10:37:05;14.43;;;4.00;;
6290;SDS011;3178;48.730;8.990;2023-02-23T10:39:35;14.83;;;4.40;;
6290;SDS011;3178;48.730;8.990;2023-02-23T10:42:02;15.77;;;4.43;;
6290;SDS011;3178;48.730;8.990;2023-02-23T10:44:31;9.53;;;3.60;;
6290;SDS011;3178;48.730;8.990;2023-02-23T10:46:58;9.80;;;3.90;;
6290;SDS011;3178;48.730;8.990;2023-02-23T10:49:40;13.77;;;4.80;;
6290;SDS011;3178;48.730;8.990;2023-02-23T10:52:19;8.93;;;3.33;;
6290;SDS011;3178;48.730;8.990;2023-02-23T10:55:07;8.80;;;3.63;;
6290;SDS011;3178;48.730;8.990;2023-02-23T10:57:47;11.03;;;4.20;;
6290;SDS011;3178;48.730;8.990;2023-02-23T11:02:41;18.63;;;3.30;;
6290;SDS011;3178;48.730;8.990;2023-02-23T11:05:25;11.83;;;4.87;;
6290;SDS011;3178;48.730;8.990;2023-02-23T11:13:43;9.10;;;3.10;;
6290;SDS011;3178;48.730;8.990;2023-02-23T11:19:06;9.80;;;3.60;;
6290;SDS011;3178;48.730;8.990;2023-02-23T11:22:15;14.80;;;4.00;;
6290;SDS011;3178;48.730;8.990;2023-02-23T11:24:47;5.50;;;3.10;;
6290;SDS011;3178;48.730;8.990;2023-02-23T11:27:20;11.80;;;4.07;;
6290;SDS011;3178;48.730;8.990;2023-02-23T11:29:50;9.80;;;3.20;;
6290;SDS011;3178;48.730;8.990;2023-02-23T11:32:19;8.63;;;3.43;;
6290;SDS011;3178;48.730;8.990;2023-02-23T11:34:45;10.17;;;3.40;;
6290;SDS011;3178;48.730;8.990;2023-02-23T11:37:31;8.90;;;3.37;;
6290;SDS011;3178;48.730;8.990;2023-02-23T11:39:58;12.93;;;3.90;;
6290;SDS011;3178;48.730;8.990;2023-02-23T11:42:26;9.60;;;3.20;;
6290;SDS011;3178;48.730;8.990;2023-02-23T11:45:10;10.00;;;3.37;;
6290;SDS011;3178;48.730;8.990;2023-02-23T11:47:41;12.20;;;4.17;;
6290;SDS011;3178;48.730;8.990;2023-02-23T11:50:19;9.60;;;4.07;;
6290;SDS011;3178;48.730;8.990;2023-02-23T11:55:47;10.33;;;4.37;;
6290;SDS011;3178;48.730;8.990;2023-02-23T11:58:35;8.87;;;4.30;;
6290;SDS011;3178;48.730;8.990;2023-02-23T12:01:10;13.20;;;4.60;;
6290;SDS011;3178;48.730;8.990;2023-02-23T12:03:45;9.63;;;3.43;;
6290;SDS011;3178;48.730;8.990;2023-02-23T12:06:29;6.50;;;3.13;;
6290;SDS011;3178;48.730;8.990;2023-02-23T12:09:10;7.60;;;3.73;;
6290;SDS011;3178;48.730;8.990;2023-02-23T12:11:43;8.00;;;3.80;;
6290;SDS011;3178;48.730;8.990;2023-02-23T12:14:32;15.00;;;4.07;;
6290;SDS011;3178;48.730;8.990;2023-02-23T12:17:08;11.13;;;3.90;;
6290;SDS011;3178;48.730;8.990;2023-02-23T12:19:44;12.13;;;2.60;;
6290;SDS011;3178;48.730;8.990;2023-02-23T12:22:21;10.47;;;3.43;;
6290;SDS011;3178;48.730;8.990;2023-02-23T12:30:45;6.83;;;2.73;;
6290;SDS011;3178;48.730;8.990;2023-02-23T12:33:24;8.70;;;3.07;;
6290;SDS011;3178;48.730;8.990;2023-02-23T12:47:15;10.73;;;3.60;;
6290;SDS011;3178;48.730;8.990;2023-02-23T12:50:01;7.87;;;3.27;;
6290;SDS011;3178;48.730;8.990;2023-02-23T12:52:45;12.70;;;4.07;;
6290;SDS011;3178;48.730;8.990;2023-02-23T12:56:13;9.90;;;2.90;;
6290;SDS011;3178;48.730;8.990;2023-02-23T12:58:31;10.80;;;3.60;;
6290;SDS011;3178;48.730;8.990;2023-02-23T13:01:09;10.57;;;3.80;;
6290;SDS011;3178;48.730;8.990;2023-02-23T13:06:21;7.27;;;3.13;;
6290;SDS011;3178;48.730;8.990;2023-02-23T13:14:11;26.03;;;4.57;;
6290;SDS011;3178;48.730;8.990;2023-02-23T13:16:50;7.10;;;3.37;;
6290;SDS011;3178;48.730;8.990;2023-02-23T13:19:31;5.80;;;3.33;;
6290;SDS011;3178;48.730;8.990;2023-02-23T13:22:20;5.27;;;3.03;;
6290;SDS011;3178;48.730;8.990;2023-02-23T13:24:53;5.30;;;3.13;;
6290;SDS011;3178;48.730;8.990;2023-02-23T13:27:25;13.80;;;3.30;;
6290;SDS011;3178;48.730;8.990;2023-02-23T13:29:51;14.00;;;4.40;;
6290;SDS011;3178;48.730;8.990;2023-02-23T13:34:49;6.80;;;4.57;;
6290;SDS011;3178;48.730;8.990;2023-02-23T13:37:20;8.67;;;5.00;;
6290;SDS011;3178;48.730;8.990;2023-02-23T13:40:02;10.73;;;4.43;;
6290;SDS011;3178;48.730;8.990;2023-02-23T13:48:38;11.10;;;5.20;;
6290;SDS011;3178;48.730;8.990;2023-02-23T13:51:36;10.30;;;5.23;;
6290;SDS011;3178;48.730;8.990;2023-02-23T13:56:48;14.70;;;4.77;;
6290;SDS011;3178;48.730;8.990;2023-02-23T13:59:20;7.97;;;4.93;;
6290;SDS011;3178;48.730;8.990;2023-02-23T14:01:50;14.37;;;5.30;;
6290;SDS011;3178;48.730;8.990;2023-02-23T14:04:25;7.53;;;4.83;;
6290;SDS011;3178;48.730;8.990;2023-02-23T14:09:36;15.50;;;5.37;;
6290;SDS011;3178;48.730;8.990;2023-02-23T14:15:28;10.20;;;4.87;;
6290;SDS011;3178;48.730;8.990;2023-02-23T14:20:43;7.80;;;5.07;;
6290;SDS011;3178;48.730;8.990;2023-02-23T14:23:15;11.23;;;4.80;;
6290;SDS011;3178;48.730;8.990;2023-02-23T14:28:28;17.40;;;11.30;;
6290;SDS011;3178;48.730;8.990;2023-02-23T14:44:20;7.27;;;3.97;;
6290;SDS011;3178;48.730;8.990;2023-02-23T14:47:12;6.23;;;3.20;;
6290;SDS011;3178;48.730;8.990;2023-02-23T14:49:44;6.10;;;3.00;;
6290;SDS011;3178;48.730;8.990;2023-02-23T14:52:21;11.40;;;3.80;;
6290;SDS011;3178;48.730;8.990;2023-02-23T14:55:03;9.03;;;4.10;;
6290;SDS011;3178;48.730;8.990;2023-02-23T14:57:37;8.03;;;3.43;;
6290;SDS011;3178;48.730;8.990;2023-02-23T15:00:11;10.87;;;4.33;;
6290;SDS011;3178;48.730;8.990;2023-02-23T15:05:40;8.13;;;4.40;;
6290;SDS011;3178;48.730;8.990;2023-02-23T15:08:08;8.50;;;3.83;;
6290;SDS011;3178;48.730;8.990;2023-02-23T15:10:42;6.07;;;3.80;;
6290;SDS011;3178;48.730;8.990;2023-02-23T15:15:45;12.00;;;5.00;;
6290;SDS011;3178;48.730;8.990;2023-02-23T15:21:33;13.63;;;5.43;;
6290;SDS011;3178;48.730;8.990;2023-02-23T15:24:06;9.70;;;5.20;;
6290;SDS011;3178;48.730;8.990;2023-02-23T15:26:36;10.53;;;5.10;;
6290;SDS011;3178;48.730;8.990;2023-02-23T15:29:04;14.03;;;4.93;;
6290;SDS011;3178;48.730;8.990;2023-02-23T15:31:41;11.40;;;6.10;;
6290;SDS011;3178;48.730;8.990;2023-02-23T15:34:16;13.00;;;5.67;;
6290;SDS011;3178;48.730;8.990;2023-02-23T15:36:47;17.60;;;5.30;;
6290;SDS011;3178;48.730;8.990;2023-02-23T15:39:39;12.40;;;5.23;;
6290;SDS011;3178;48.730;8.990;2023-02-23T15:42:10;9.00;;;5.10;;
6290;SDS011;3178;48.730;8.990;2023-02-23T15:44:39;8.90;;;4.77;;
6290;SDS011;3178;48.730;8.990;2023-02-23T15:47:08;11.63;;;4.97;;
6290;SDS011;3178;48.730;8.990;2023-02-23T15:49:45;11.30;;;4.60;;
6290;SDS011;3178;48.730;8.990;2023-02-23T15:52:16;13.67;;;4.93;;
6290;SDS011;3178;48.730;8.990;2023-02-23T15:54:47;10.00;;;5.80;;
6290;SDS011;3178;48.730;8.990;2023-02-23T16:00:16;9.53;;;5.30;;
6290;SDS011;3178;48.730;8.990;2023-02-23T16:02:43;14.30;;;6.37;;
6290;SDS011;3178;48.730;8.990;2023-02-23T16:05:20;8.70;;;5.37;;
6290;SDS011;3178;48.730;8.990;2023-02-23T16:07:47;10.73;;;5.13;;
6290;SDS011;3178;48.730;8.990;2023-02-23T16:10:24;11.90;;;5.17;;
6290;SDS011;3178;48.730;8.990;2023-02-23T16:12:52;12.10;;;5.33;;
6290;SDS011;3178;48.730;8.990;2023-02-23T16:18:03;12.83;;;6.03;;
6290;SDS011;3178;48.730;8.990;2023-02-23T16:23:02;10.97;;;5.20;;
6290;SDS011;3178;48.730;8.990;2023-02-23T16:25:29;13.20;;;5.30;;
6290;SDS011;3178;48.730;8.990;2023-02-23T16:28:03;13.13;;;5.27;;
6290;SDS011;3178;48.730;8.990;2023-02-23T16:30:37;20.20;;;5.50;;
6290;SDS011;3178;48.730;8.990;2023-02-23T16:35:51;15.27;;;5.47;;
6290;SDS011;3178;48.730;8.990;2023-02-23T16:38:34;12.73;;;4.93;;
6290;SDS011;3178;48.730;8.990;2023-02-23T16:41:03;11.63;;;4.67;;
6290;SDS011;3178;48.730;8.990;2023-02-23T16:43:29;9.37;;;4.83;;
6290;SDS011;3178;48.730;8.990;2023-02-23T16:45:58;12.93;;;5.37;;
6290;SDS011;3178;48.730;8.990;2023-02-23T16:48:24;14.97;;;5.20;;
6290;SDS011;3178;48.730;8.990;2023-02-23T16:50:50;10.57;;;4.63;;
6290;SDS011;3178;48.730;8.990;2023-02-23T16:53:15;9.30;;;4.30;;
6290;SDS011;3178;48.730;8.990;2023-02-23T16:55:46;14.30;;;5.17;;
6290;SDS011;3178;48.730;8.990;2023-02-23T16:58:22;9.37;;;4.83;;
6290;SDS011;3178;48.730;8.990;2023-02-23T17:00:49;9.90;;;3.90;;
6290;SDS011;3178;48.730;8.990;2023-02-23T17:03:23;11.73;;;4.43;;
6290;SDS011;3178;48.730;8.990;2023-02-23T17:05:51;12.17;;;5.10;;
6290;SDS011;3178;48.730;8.990;2023-02-23T17:08:17;7.37;;;4.27;;
6290;SDS011;3178;48.730;8.990;2023-02-23T17:10:44;14.50;;;5.47;;
6290;SDS011;3178;48.730;8.990;2023-02-23T17:13:14;16.10;;;4.97;;
6290;SDS011;3178;48.730;8.990;2023-02-23T17:15:45;11.43;;;4.60;;
6290;SDS011;3178;48.730;8.990;2023-02-23T17:18:15;9.13;;;5.00;;
6290;SDS011;3178;48.730;8.990;2023-02-23T17:20:42;14.03;;;4.53;;
6290;SDS011;3178;48.730;8.990;2023-02-23T17:23:07;9.77;;;4.30;;
6290;SDS011;3178;48.730;8.990;2023-02-23T17:25:33;11.40;;;4.80;;
6290;SDS011;3178;48.730;8.990;2023-02-23T17:27:59;16.87;;;5.00;;
6290;SDS011;3178;48.730;8.990;2023-02-23T17:30:25;12.50;;;5.73;;
6290;SDS011;3178;48.730;8.990;2023-02-23T17:32:51;12.37;;;5.57;;
6290;SDS011;3178;48.730;8.990;2023-02-23T17:35:18;10.40;;;4.80;;
6290;SDS011;3178;48.730;8.990;2023-02-23T17:37:44;8.03;;;5.03;;
6290;SDS011;3178;48.730;8.990;2023-02-23T17:40:12;15.40;;;7.43;;
6290;SDS011;3178;48.730;8.990;2023-02-23T17:42:39;17.30;;;10.13;;
6290;SDS011;3178;48.730;8.990;2023-02-23T17:45:05;15.53;;;5.47;;
6290;SDS011;3178;48.730;8.990;2023-02-23T17:47:31;10.40;;;5.60;;